^^
Meteo Knjazevac Station Historical Data
Daily Summary for January 3, 2022 Units:  Metric    English   Both
Daily Weekly Monthly Yearly Custom
  High: Low: Average:
Temperature: 2.4 °C 0.6 °C 1.5 °C
Dew Point: 2.3 °C 0.4 °C 1.3 °C
Humidity: 99% 98% 99%
Wind Speed: 14.5km/h 2.9km/h 7.9km/h
Wind Gust: 20.9km/h - -
Wind- - SSW
Pressure: 1028.3 hPa 1023.9 hPa -
Precipitation: 0 mm    
Historical Graphs
 
 
Tabular Data for January 3, 2022
Time Temperature Dew Point Pressure Wind Wind Speed Wind Gust Humidity Rainfall Rate (Hourly) solar Conditions
00:04 1.1 °C 0.9 °C 1023.9 hPa North 8.2 km/h 9.7 km/h 99% 0 mm 0 W/m2
00:09 1.2 °C 1 °C 1023.9 hPa North 7.4 km/h 9.7 km/h 99% 0 mm 0 W/m2
00:14 1.2 °C 1.1 °C 1023.9 hPa North 6 km/h 8 km/h 99% 0 mm 0 W/m2
00:19 1.2 °C 1 °C 1023.9 hPa North 5.8 km/h 8 km/h 99% 0 mm 0 W/m2
00:24 1.2 °C 1 °C 1023.9 hPa North 7.6 km/h 8 km/h 99% 0 mm 0 W/m2
00:29 1.2 °C 1 °C 1023.9 hPa North 6.1 km/h 9.7 km/h 99% 0 mm 0 W/m2
00:34 1.2 °C 1 °C 1023.9 hPa North 6.9 km/h 8 km/h 99% 0 mm 0 W/m2
00:39 1.1 °C 0.9 °C 1023.9 hPa North 6.8 km/h 8 km/h 99% 0 mm 0 W/m2
00:44 1.1 °C 0.9 °C 1023.9 hPa North 8 km/h 11.3 km/h 99% 0 mm 0 W/m2
00:49 1.1 °C 0.9 °C 1023.9 hPa North 7.4 km/h 9.7 km/h 99% 0 mm 0 W/m2
00:54 1.1 °C 0.9 °C 1024.3 hPa North 9.7 km/h 9.7 km/h 99% 0 mm 0 W/m2
00:59 1.1 °C 0.9 °C 1024.3 hPa North 9 km/h 11.3 km/h 99% 0 mm 0 W/m2
01:04 1.1 °C 0.9 °C 1024.3 hPa North 10 km/h 12.9 km/h 99% 0 mm 0 W/m2
01:09 1 °C 0.8 °C 1024.3 hPa North 8.4 km/h 11.3 km/h 99% 0 mm 0 W/m2
01:14 1 °C 0.8 °C 1024.3 hPa North 9 km/h 9.7 km/h 99% 0 mm 0 W/m2
01:19 1 °C 0.8 °C 1024.3 hPa North 9.7 km/h 11.3 km/h 99% 0 mm 0 W/m2
01:24 1 °C 0.8 °C 1024.3 hPa North 8.7 km/h 11.3 km/h 99% 0 mm 0 W/m2
01:29 0.9 °C 0.8 °C 1024.3 hPa North 6.3 km/h 9.7 km/h 99% 0 mm 0 W/m2
01:34 0.9 °C 0.8 °C 1024.3 hPa North 8.2 km/h 8 km/h 99% 0 mm 0 W/m2
01:39 0.9 °C 0.8 °C 1024.3 hPa North 7.9 km/h 9.7 km/h 99% 0 mm 0 W/m2
01:44 0.9 °C 0.8 °C 1024.3 hPa North 8.5 km/h 9.7 km/h 99% 0 mm 0 W/m2
01:49 0.9 °C 0.8 °C 1024.3 hPa North 8 km/h 11.3 km/h 99% 0 mm 0 W/m2
01:54 0.9 °C 0.8 °C 1024.3 hPa North 4 km/h 11.3 km/h 99% 0 mm 0 W/m2
01:59 0.8 °C 0.7 °C 1024.3 hPa North 6.4 km/h 5.8 km/h 99% 0 mm 0 W/m2
02:04 0.8 °C 0.7 °C 1024.6 hPa North 5.3 km/h 9.7 km/h 99% 0 mm 0 W/m2
02:09 0.8 °C 0.7 °C 1024.6 hPa North 8.5 km/h 6.8 km/h 99% 0 mm 0 W/m2
02:14 0.8 °C 0.7 °C 1024.3 hPa North 7.2 km/h 11.3 km/h 99% 0 mm 0 W/m2
02:19 0.8 °C 0.7 °C 1024.3 hPa North 6 km/h 8 km/h 99% 0 mm 0 W/m2
02:24 0.8 °C 0.7 °C 1024.3 hPa North 6.1 km/h 9.7 km/h 99% 0 mm 0 W/m2
02:29 0.8 °C 0.7 °C 1024.3 hPa North 6 km/h 9.7 km/h 99% 0 mm 0 W/m2
02:34 0.8 °C 0.7 °C 1024.3 hPa North 9.5 km/h 9.7 km/h 99% 0 mm 0 W/m2
02:39 0.8 °C 0.7 °C 1024.3 hPa North 8.9 km/h 11.3 km/h 99% 0 mm 0 W/m2
02:44 0.8 °C 0.7 °C 1024.3 hPa North 9.5 km/h 11.3 km/h 99% 0 mm 0 W/m2
02:49 0.8 °C 0.7 °C 1024.3 hPa North 8.2 km/h 11.3 km/h 99% 0 mm 0 W/m2
02:54 0.8 °C 0.7 °C 1024.3 hPa North 7.7 km/h 12.9 km/h 99% 0 mm 0 W/m2
02:59 0.8 °C 0.7 °C 1024.3 hPa North 8.4 km/h 9.7 km/h 99% 0 mm 0 W/m2
03:04 0.7 °C 0.6 °C 1024.3 hPa North 9.5 km/h 12.9 km/h 99% 0 mm 0 W/m2
03:09 0.7 °C 0.6 °C 1024.3 hPa North 11.1 km/h 12.9 km/h 99% 0 mm 0 W/m2
03:14 0.7 °C 0.6 °C 1024.3 hPa North 10.8 km/h 12.9 km/h 99% 0 mm 0 W/m2
03:19 0.7 °C 0.6 °C 1024.3 hPa North 7.6 km/h 14.5 km/h 99% 0 mm 0 W/m2
03:24 0.7 °C 0.6 °C 1024.3 hPa North 9 km/h 9.7 km/h 99% 0 mm 0 W/m2
03:29 0.7 °C 0.6 °C 1024.3 hPa North 7.2 km/h 11.3 km/h 99% 0 mm 0 W/m2
03:34 0.7 °C 0.6 °C 1024.3 hPa North 6.4 km/h 8 km/h 99% 0 mm 0 W/m2
03:39 0.6 °C 0.4 °C 1024.3 hPa North 6.9 km/h 9.7 km/h 99% 0 mm 0 W/m2
03:44 0.6 °C 0.4 °C 1024.3 hPa North 10.1 km/h 8 km/h 99% 0 mm 0 W/m2
03:49 0.6 °C 0.4 °C 1024.3 hPa North 7.7 km/h 12.9 km/h 99% 0 mm 0 W/m2
03:54 0.6 °C 0.4 °C 1024.3 hPa North 7.4 km/h 9.7 km/h 99% 0 mm 0 W/m2
03:59 0.6 °C 0.4 °C 1024.3 hPa North 11.3 km/h 11.3 km/h 99% 0 mm 0 W/m2
04:04 0.6 °C 0.4 °C 1024.3 hPa North 10 km/h 12.9 km/h 99% 0 mm 0 W/m2
04:09 0.6 °C 0.4 °C 1024.3 hPa North 8.9 km/h 11.3 km/h 99% 0 mm 0 W/m2
04:14 0.6 °C 0.4 °C 1024.3 hPa North 9.2 km/h 10.5 km/h 99% 0 mm 0 W/m2
04:19 0.6 °C 0.4 °C 1024.3 hPa North 7.7 km/h 12.9 km/h 99% 0 mm 0 W/m2
04:24 0.6 °C 0.4 °C 1024.3 hPa North 9.7 km/h 11.3 km/h 99% 0 mm 0 W/m2
04:29 0.6 °C 0.4 °C 1024.3 hPa North 9.2 km/h 14.5 km/h 99% 0 mm 0 W/m2
04:34 0.6 °C 0.4 °C 1024.3 hPa North 10.3 km/h 12.9 km/h 99% 0 mm 0 W/m2
04:39 0.6 °C 0.4 °C 1024.3 hPa North 8 km/h 14.5 km/h 99% 0 mm 0 W/m2
04:44 0.6 °C 0.4 °C 1024.3 hPa North 8.9 km/h 9.7 km/h 99% 0 mm 0 W/m2
04:49 0.7 °C 0.5 °C 1024.3 hPa North 8.2 km/h 9.7 km/h 99% 0 mm 0 W/m2
04:54 0.6 °C 0.4 °C 1024.3 hPa North 8.2 km/h 9.7 km/h 99% 0 mm 0 W/m2
04:59 0.6 °C 0.4 °C 1024.3 hPa North 10.6 km/h 9.7 km/h 99% 0 mm 0 W/m2
05:04 0.6 °C 0.4 °C 1024.6 hPa North 9.3 km/h 14.5 km/h 99% 0 mm 0 W/m2
05:09 0.7 °C 0.5 °C 1024.6 hPa North 8.7 km/h 11.3 km/h 99% 0 mm 0 W/m2
05:14 0.6 °C 0.4 °C 1024.3 hPa North 12.4 km/h 9.7 km/h 99% 0 mm 0 W/m2
05:19 0.6 °C 0.4 °C 1024.3 hPa North 9.7 km/h 14.5 km/h 99% 0 mm 0 W/m2
05:24 0.6 °C 0.4 °C 1024.3 hPa North 11.1 km/h 12.9 km/h 99% 0 mm 0 W/m2
05:29 0.6 °C 0.4 °C 1024.3 hPa North 7.7 km/h 12.9 km/h 99% 0 mm 0 W/m2
05:34 0.6 °C 0.4 °C 1024.3 hPa North 8.5 km/h 9.7 km/h 99% 0 mm 0 W/m2
05:39 0.6 °C 0.4 °C 1024.3 hPa North 10.1 km/h 11.3 km/h 99% 0 mm 0 W/m2
05:44 0.6 °C 0.4 °C 1024.3 hPa North 8.2 km/h 11.3 km/h 99% 0 mm 0 W/m2
05:49 0.6 °C 0.4 °C 1024.6 hPa North 9.2 km/h 9.7 km/h 99% 0 mm 0 W/m2
05:54 0.6 °C 0.4 °C 1024.6 hPa North 6.6 km/h 11.3 km/h 99% 0 mm 0 W/m2
05:59 0.6 °C 0.4 °C 1024.6 hPa North 9.3 km/h 8 km/h 99% 0 mm 0 W/m2
06:04 0.6 °C 0.4 °C 1024.6 hPa North 7.9 km/h 11.3 km/h 99% 0 mm 0 W/m2
06:09 0.6 °C 0.4 °C 1024.3 hPa North 7.9 km/h 9.7 km/h 99% 0 mm 0 W/m2
06:14 0.6 °C 0.4 °C 1024.3 hPa North 12.6 km/h 12.9 km/h 99% 0 mm 0 W/m2
06:19 0.6 °C 0.4 °C 1024.6 hPa North 12.1 km/h 14.5 km/h 99% 0 mm 0 W/m2
06:24 0.6 °C 0.4 °C 1024.6 hPa North 8.9 km/h 14.5 km/h 99% 0 mm 0 W/m2
06:29 0.6 °C 0.4 °C 1024.6 hPa North 6.4 km/h 11.3 km/h 99% 0 mm 0 W/m2
06:34 0.6 °C 0.4 °C 1024.6 hPa North 8.5 km/h 8 km/h 99% 0 mm 0 W/m2
06:39 0.7 °C 0.5 °C 1024.6 hPa North 10 km/h 11.3 km/h 99% 0 mm 0 W/m2
06:44 0.7 °C 0.6 °C 1024.6 hPa North 8.2 km/h 12.9 km/h 99% 0 mm 0 W/m2
06:49 0.7 °C 0.6 °C 1024.6 hPa North 10.3 km/h 8 km/h 99% 0 mm 1 W/m2
06:54 0.7 °C 0.6 °C 1024.6 hPa North 8.5 km/h 11.3 km/h 99% 0 mm 2 W/m2
06:59 0.7 °C 0.6 °C 1024.9 hPa North 10.6 km/h 12.9 km/h 99% 0 mm 2 W/m2
07:04 0.7 °C 0.6 °C 1024.9 hPa North 10.1 km/h 12.9 km/h 99% 0 mm 4 W/m2
07:09 0.7 °C 0.6 °C 1024.9 hPa North 13.4 km/h 12.9 km/h 99% 0 mm 6 W/m2
07:14 0.7 °C 0.6 °C 1024.9 hPa North 10.5 km/h 14.5 km/h 99% 0 mm 7 W/m2
07:19 0.7 °C 0.6 °C 1024.9 hPa North 10.1 km/h 11.3 km/h 99% 0 mm 9 W/m2
07:24 0.7 °C 0.6 °C 1024.9 hPa North 9.2 km/h 11.3 km/h 99% 0 mm 11 W/m2
07:29 0.7 °C 0.6 °C 1024.9 hPa North 12.4 km/h 11.3 km/h 99% 0 mm 13 W/m2
07:34 0.7 °C 0.6 °C 1024.9 hPa North 7.6 km/h 14.5 km/h 99% 0 mm 15 W/m2
07:39 0.8 °C 0.7 °C 1024.9 hPa North 8.5 km/h 9.7 km/h 99% 0 mm 20 W/m2
07:44 0.8 °C 0.7 °C 1024.9 hPa North 9 km/h 9.7 km/h 99% 0 mm 21 W/m2
07:49 0.8 °C 0.7 °C 1024.9 hPa North 6 km/h 11.3 km/h 99% 0 mm 25 W/m2
07:54 0.8 °C 0.7 °C 1024.9 hPa North 7.9 km/h 8 km/h 99% 0 mm 30 W/m2
07:59 0.9 °C 0.8 °C 1024.9 hPa North 9.3 km/h 9.7 km/h 99% 0 mm 30 W/m2
08:04 0.9 °C 0.8 °C 1024.9 hPa North 8.2 km/h 12.9 km/h 99% 0 mm 33 W/m2
08:09 0.9 °C 0.8 °C 1024.9 hPa North 7.4 km/h 11.3 km/h 99% 0 mm 34 W/m2
08:14 0.9 °C 0.8 °C 1024.9 hPa North 6.3 km/h 9.7 km/h 99% 0 mm 35 W/m2
08:19 0.9 °C 0.8 °C 1024.9 hPa North 7.7 km/h 8 km/h 99% 0 mm 40 W/m2
08:24 1 °C 0.8 °C 1024.9 hPa North 9.3 km/h 9.7 km/h 99% 0 mm 41 W/m2
08:29 1 °C 0.8 °C 1024.9 hPa North 7.1 km/h 11.3 km/h 99% 0 mm 39 W/m2
08:34 1 °C 0.8 °C 1025.3 hPa North 5 km/h 8 km/h 99% 0 mm 40 W/m2
08:39 1 °C 0.8 °C 1025.3 hPa North 6.8 km/h 9.7 km/h 99% 0 mm 42 W/m2
08:44 1.1 °C 0.9 °C 1025.3 hPa North 7.1 km/h 8 km/h 99% 0 mm 43 W/m2
08:49 1.1 °C 0.9 °C 1025.3 hPa North 6.9 km/h 8 km/h 99% 0 mm 42 W/m2
08:54 1.1 °C 0.9 °C 1025.3 hPa North 12.1 km/h 12.9 km/h 99% 0 mm 44 W/m2
08:59 1.1 °C 0.9 °C 1025.3 hPa North 9 km/h 12.9 km/h 99% 0 mm 45 W/m2
09:04 1.2 °C 1 °C 1025.3 hPa North 6.4 km/h 11.3 km/h 99% 0 mm 50 W/m2
09:09 1.1 °C 0.9 °C 1025.3 hPa North 9.2 km/h 11.3 km/h 99% 0 mm 56 W/m2
09:14 1.1 °C 0.9 °C 1025.3 hPa North 7.1 km/h 11.3 km/h 99% 0 mm 51 W/m2
09:19 1.1 °C 0.9 °C 1025.3 hPa North 9.8 km/h 9.7 km/h 99% 0 mm 52 W/m2
09:24 1.1 °C 0.9 °C 1025.3 hPa North 10.1 km/h 11.3 km/h 99% 0 mm 52 W/m2
09:29 1.1 °C 0.9 °C 1025.3 hPa North 8.2 km/h 12.9 km/h 99% 0 mm 59 W/m2
09:34 1.2 °C 1.1 °C 1025.3 hPa North 9 km/h 9.7 km/h 99% 0 mm 49 W/m2
09:39 1.2 °C 1.1 °C 1025.6 hPa North 8.5 km/h 11.3 km/h 99% 0 mm 55 W/m2
09:44 1.2 °C 1 °C 1025.6 hPa North 7.6 km/h 11.3 km/h 99% 0 mm 61 W/m2
09:49 1.2 °C 1.1 °C 1025.6 hPa North 10.8 km/h 12.9 km/h 99% 0 mm 56 W/m2
09:54 1.2 °C 1.1 °C 1025.6 hPa North 9.7 km/h 12.9 km/h 99% 0 mm 69 W/m2
09:59 1.3 °C 1.2 °C 1025.6 hPa North 9.8 km/h 11.3 km/h 99% 0 mm 64 W/m2
10:04 1.3 °C 1.2 °C 1025.6 hPa North 6.6 km/h 11.3 km/h 99% 0 mm 61 W/m2
10:09 1.3 °C 1.2 °C 1025.6 hPa North 6.8 km/h 8 km/h 99% 0 mm 65 W/m2
10:14 1.4 °C 1.3 °C 1025.3 hPa North 6.8 km/h 8 km/h 99% 0 mm 71 W/m2
10:19 1.4 °C 1.3 °C 1025.3 hPa North 7.2 km/h 8 km/h 99% 0 mm 71 W/m2
10:24 1.4 °C 1.3 °C 1025.3 hPa North 7.2 km/h 9.7 km/h 99% 0 mm 70 W/m2
10:29 1.5 °C 1.3 °C 1025.3 hPa North 6.9 km/h 8 km/h 99% 0 mm 73 W/m2
10:34 1.5 °C 1.3 °C 1025.3 hPa North 7.6 km/h 8 km/h 99% 0 mm 75 W/m2
10:39 1.5 °C 1.3 °C 1025.3 hPa North 5.1 km/h 9.7 km/h 99% 0 mm 74 W/m2
10:44 1.6 °C 1.4 °C 1025.3 hPa NNE 7.9 km/h 8 km/h 99% 0 mm 87 W/m2
10:49 1.6 °C 1.4 °C 1025.3 hPa NNE 8.4 km/h 9.7 km/h 99% 0 mm 93 W/m2
10:54 1.7 °C 1.6 °C 1025.3 hPa NNE 9.5 km/h 11.3 km/h 99% 0 mm 101 W/m2
10:59 1.8 °C 1.7 °C 1025.3 hPa North 9.5 km/h 11.3 km/h 99% 0 mm 90 W/m2
11:04 1.8 °C 1.7 °C 1025.3 hPa North 9.2 km/h 11.3 km/h 99% 0 mm 92 W/m2
11:09 1.8 °C 1.7 °C 1025.3 hPa NNE 10.9 km/h 11.3 km/h 99% 0 mm 85 W/m2
11:14 1.8 °C 1.7 °C 1025.3 hPa NNE 12.4 km/h 12.9 km/h 99% 0 mm 87 W/m2
11:19 1.8 °C 1.7 °C 1024.9 hPa North 8.9 km/h 12.9 km/h 99% 0 mm 77 W/m2
11:24 1.8 °C 1.7 °C 1024.9 hPa North 8.4 km/h 9.7 km/h 99% 0 mm 74 W/m2
11:29 1.8 °C 1.7 °C 1024.9 hPa North 7.4 km/h 12.9 km/h 99% 0 mm 74 W/m2
11:34 1.8 °C 1.7 °C 1024.9 hPa North 10.1 km/h 11.3 km/h 99% 0 mm 75 W/m2
11:39 1.9 °C 1.8 °C 1024.9 hPa North 9 km/h 12.9 km/h 99% 0 mm 73 W/m2
11:44 1.9 °C 1.8 °C 1024.9 hPa NNE 7.9 km/h 11.3 km/h 99% 0 mm 76 W/m2
11:49 1.9 °C 1.8 °C 1024.9 hPa North 8 km/h 9.7 km/h 99% 0 mm 67 W/m2
11:54 1.9 °C 1.8 °C 1024.9 hPa North 8 km/h 9.7 km/h 99% 0 mm 69 W/m2
11:59 1.9 °C 1.8 °C 1024.9 hPa North 5 km/h 9.7 km/h 99% 0 mm 63 W/m2
12:04 1.9 °C 1.8 °C 1024.9 hPa North 4.8 km/h 8 km/h 99% 0 mm 63 W/m2
12:09 1.9 °C 1.8 °C 1024.9 hPa North 6.9 km/h 9.7 km/h 99% 0 mm 69 W/m2
12:14 1.9 °C 1.8 °C 1024.9 hPa North 7.4 km/h 8 km/h 99% 0 mm 65 W/m2
12:19 1.9 °C 1.8 °C 1024.9 hPa North 6.1 km/h 9.7 km/h 99% 0 mm 67 W/m2
12:24 1.9 °C 1.8 °C 1024.9 hPa North 7.4 km/h 8 km/h 99% 0 mm 66 W/m2
12:29 1.9 °C 1.8 °C 1024.9 hPa North 7.1 km/h 9.7 km/h 99% 0 mm 70 W/m2
12:34 2 °C 1.8 °C 1024.9 hPa North 6.6 km/h 9.7 km/h 99% 0 mm 71 W/m2
12:39 2 °C 1.8 °C 1024.9 hPa North 6.1 km/h 11.3 km/h 99% 0 mm 73 W/m2
12:44 2.1 °C 1.9 °C 1024.9 hPa North 6.9 km/h 8 km/h 99% 0 mm 73 W/m2
12:49 2.1 °C 1.9 °C 1024.6 hPa North 8.5 km/h 9.7 km/h 99% 0 mm 63 W/m2
12:54 2.2 °C 2 °C 1024.6 hPa North 8.4 km/h 12.9 km/h 99% 0 mm 63 W/m2
12:59 2.2 °C 2.1 °C 1024.6 hPa North 10.9 km/h 12.9 km/h 99% 0 mm 65 W/m2
13:04 2.2 °C 2.1 °C 1024.6 hPa North 6.8 km/h 12.9 km/h 99% 0 mm 63 W/m2
13:09 2.2 °C 2.1 °C 1024.6 hPa North 5.5 km/h 8 km/h 99% 0 mm 67 W/m2
13:14 2.3 °C 2.2 °C 1024.6 hPa North 7.1 km/h 8 km/h 99% 0 mm 70 W/m2
13:19 2.3 °C 2.2 °C 1024.6 hPa North 10.1 km/h 11.3 km/h 99% 0 mm 61 W/m2
13:24 2.3 °C 2.2 °C 1024.6 hPa North 8.2 km/h 11.3 km/h 99% 0 mm 59 W/m2
13:29 2.3 °C 2.1 °C 1024.6 hPa North 10.3 km/h 12.9 km/h 99% 0 mm 57 W/m2
13:34 2.3 °C 2.2 °C 1024.6 hPa North 8 km/h 12.9 km/h 99% 0 mm 63 W/m2
13:39 2.3 °C 2.2 °C 1024.6 hPa North 7.4 km/h 11.3 km/h 99% 0 mm 61 W/m2
13:44 2.3 °C 2.2 °C 1024.6 hPa North 8.7 km/h 9.7 km/h 99% 0 mm 60 W/m2
13:49 2.4 °C 2.3 °C 1024.6 hPa North 8.2 km/h 11.3 km/h 99% 0 mm 59 W/m2
13:54 2.4 °C 2.3 °C 1024.6 hPa North 6.4 km/h 9.7 km/h 99% 0 mm 53 W/m2
13:59 2.4 °C 2.3 °C 1024.6 hPa North 8.4 km/h 11.3 km/h 99% 0 mm 49 W/m2
14:04 2.4 °C 2.3 °C 1024.6 hPa North 6.6 km/h 9.7 km/h 99% 0 mm 49 W/m2
14:09 2.4 °C 2.3 °C 1024.6 hPa North 5.1 km/h 8 km/h 99% 0 mm 43 W/m2
14:14 2.4 °C 2.3 °C 1024.6 hPa North 6.9 km/h 8 km/h 99% 0 mm 40 W/m2
14:19 2.4 °C 2.3 °C 1024.6 hPa North 7.4 km/h 9.7 km/h 99% 0 mm 35 W/m2
14:24 2.4 °C 2.3 °C 1024.6 hPa North 5.1 km/h 9.7 km/h 99% 0 mm 32 W/m2
14:29 2.4 °C 2.3 °C 1024.6 hPa North 7.9 km/h 6.4 km/h 99% 0 mm 30 W/m2
14:34 2.4 °C 2.3 °C 1024.6 hPa North 8.9 km/h 11.3 km/h 99% 0 mm 30 W/m2
14:39 2.4 °C 2.3 °C 1024.6 hPa North 8.5 km/h 12.9 km/h 99% 0 mm 29 W/m2
14:44 2.3 °C 2.2 °C 1024.6 hPa North 7.9 km/h 9.7 km/h 99% 0 mm 25 W/m2
14:49 2.3 °C 2.2 °C 1024.6 hPa North 6.9 km/h 9.7 km/h 99% 0 mm 21 W/m2
14:54 2.3 °C 2.2 °C 1024.6 hPa NNW 9.3 km/h 11.3 km/h 99% 0 mm 19 W/m2
14:59 2.3 °C 2.1 °C 1024.6 hPa NNW 7.4 km/h 11.3 km/h 99% 0 mm 18 W/m2
15:04 2.2 °C 2.1 °C 1024.6 hPa NNW 6.6 km/h 8 km/h 99% 0 mm 13 W/m2
15:09 2.2 °C 2.1 °C 1024.6 hPa North 5.8 km/h 8 km/h 99% 0 mm 12 W/m2
15:14 2.2 °C 2.1 °C 1024.6 hPa NNW 6.6 km/h 8 km/h 99% 0 mm 10 W/m2
15:19 2.2 °C 2.1 °C 1024.6 hPa NW 5.8 km/h 8 km/h 99% 0 mm 9 W/m2
15:24 2.2 °C 2 °C 1024.6 hPa NNW 8 km/h 8 km/h 99% 0 mm 8 W/m2
15:29 2.2 °C 2 °C 1024.9 hPa NNW 6 km/h 11.3 km/h 99% 0 mm 7 W/m2
15:34 2.1 °C 1.9 °C 1024.9 hPa NNW 4.5 km/h 8 km/h 99% 0 mm 6 W/m2
15:39 2.1 °C 1.9 °C 1024.9 hPa North 2.9 km/h 4.8 km/h 99% 0 mm 4 W/m2
15:44 2.1 °C 1.9 °C 1024.9 hPa North 5 km/h 5 km/h 99% 0 mm 3 W/m2
15:49 2.1 °C 1.9 °C 1024.9 hPa North 6 km/h 8 km/h 99% 0 mm 2 W/m2
15:54 2.1 °C 1.9 °C 1024.9 hPa North 8 km/h 7.9 km/h 99% 0 mm 1 W/m2
15:59 2.1 °C 1.9 °C 1024.9 hPa North 8.9 km/h 11.3 km/h 99% 0 mm 0 W/m2
16:04 2.1 °C 1.9 °C 1024.9 hPa North 6.1 km/h 9.7 km/h 99% 0 mm 0 W/m2
16:09 2.1 °C 1.9 °C 1024.9 hPa North 5.5 km/h 9.7 km/h 99% 0 mm 0 W/m2
16:14 2 °C 1.8 °C 1024.9 hPa North 7.2 km/h 11.3 km/h 99% 0 mm 0 W/m2
16:19 2 °C 1.8 °C 1024.9 hPa North 7.1 km/h 9.7 km/h 99% 0 mm 0 W/m2
16:24 2 °C 1.8 °C 1024.9 hPa North 7.7 km/h 8 km/h 99% 0 mm 0 W/m2
16:29 2 °C 1.8 °C 1024.9 hPa North 5.6 km/h 9.7 km/h 99% 0 mm 0 W/m2
16:34 2 °C 1.8 °C 1024.9 hPa North 6.1 km/h 6.4 km/h 99% 0 mm 0 W/m2
16:39 2 °C 1.8 °C 1024.9 hPa North 3.9 km/h 8 km/h 99% 0 mm 0 W/m2
16:44 2 °C 1.8 °C 1024.9 hPa North 4.5 km/h 4.8 km/h 99% 0 mm 0 W/m2
16:49 2 °C 1.8 °C 1024.9 hPa NNW 4.3 km/h 4.8 km/h 99% 0 mm 0 W/m2
16:54 1.9 °C 1.8 °C 1024.9 hPa NW 3.9 km/h 4.8 km/h 99% 0 mm 0 W/m2
16:59 1.9 °C 1.8 °C 1024.9 hPa NNW 2.9 km/h 4.8 km/h 99% 0 mm 0 W/m2
17:04 1.9 °C 1.8 °C 1024.9 hPa North 6 km/h 6.4 km/h 99% 0 mm 0 W/m2
17:09 1.9 °C 1.8 °C 1024.9 hPa North 5 km/h 8 km/h 99% 0 mm 0 W/m2
17:14 1.9 °C 1.8 °C 1024.9 hPa North 6.3 km/h 8 km/h 99% 0 mm 0 W/m2
17:19 1.9 °C 1.8 °C 1024.9 hPa North 6.3 km/h 8 km/h 99% 0 mm 0 W/m2
17:24 1.8 °C 1.7 °C 1024.9 hPa North 8 km/h 9.7 km/h 99% 0 mm 0 W/m2
17:29 1.8 °C 1.7 °C 1024.9 hPa North 6.6 km/h 9.7 km/h 99% 0 mm 0 W/m2
17:34 1.8 °C 1.7 °C 1024.9 hPa North 6.1 km/h 8 km/h 99% 0 mm 0 W/m2
17:39 1.8 °C 1.7 °C 1024.9 hPa North 10.9 km/h 11.3 km/h 99% 0 mm 0 W/m2
17:44 1.8 °C 1.7 °C 1024.9 hPa North 8.9 km/h 12.9 km/h 99% 0 mm 0 W/m2
17:49 1.8 °C 1.7 °C 1024.9 hPa North 9.7 km/h 11.3 km/h 99% 0 mm 0 W/m2
17:54 1.8 °C 1.7 °C 1025.3 hPa North 5.8 km/h 12.9 km/h 99% 0 mm 0 W/m2
17:59 1.8 °C 1.7 °C 1025.3 hPa North 5.8 km/h 6.4 km/h 99% 0 mm 0 W/m2
18:04 1.8 °C 1.7 °C 1025.3 hPa North 6.1 km/h 8 km/h 99% 0 mm 0 W/m2
18:09 1.8 °C 1.7 °C 1025.3 hPa North 5.8 km/h 8 km/h 99% 0 mm 0 W/m2
18:14 1.8 °C 1.7 °C 1025.3 hPa NNE 6.6 km/h 8 km/h 99% 0 mm 0 W/m2
18:19 1.8 °C 1.7 °C 1025.3 hPa NNE 6.3 km/h 9.7 km/h 99% 0 mm 0 W/m2
18:24 1.8 °C 1.7 °C 1025.3 hPa North 7.4 km/h 6.4 km/h 99% 0 mm 0 W/m2
18:29 1.8 °C 1.7 °C 1025.3 hPa North 6.1 km/h 9.7 km/h 99% 0 mm 0 W/m2
18:34 1.8 °C 1.7 °C 1025.3 hPa North 7.9 km/h 8 km/h 99% 0 mm 0 W/m2
18:39 1.8 °C 1.7 °C 1025.3 hPa North 8.2 km/h 11.3 km/h 99% 0 mm 0 W/m2
18:44 1.8 °C 1.7 °C 1025.3 hPa North 5.6 km/h 9.7 km/h 99% 0 mm 0 W/m2
18:49 1.8 °C 1.7 °C 1028 hPa North 7.7 km/h 8 km/h 99% 0 mm 0 W/m2
18:54 1.8 °C 1.7 °C 1028 hPa North 6.4 km/h 9.7 km/h 99% 0 mm 0 W/m2
18:59 1.8 °C 1.7 °C 1028 hPa North 5.5 km/h 8 km/h 99% 0 mm 0 W/m2
19:04 1.8 °C 1.7 °C 1028 hPa North 4.7 km/h 6.4 km/h 99% 0 mm 0 W/m2
19:09 1.8 °C 1.7 °C 1028 hPa North 5.6 km/h 6.4 km/h 99% 0 mm 0 W/m2
19:14 1.8 °C 1.7 °C 1028 hPa North 4.8 km/h 6.4 km/h 99% 0 mm 0 W/m2
19:19 1.8 °C 1.7 °C 1028 hPa North 7.6 km/h 8 km/h 99% 0 mm 0 W/m2
19:24 1.8 °C 1.7 °C 1028 hPa North 11.9 km/h 12.9 km/h 99% 0 mm 0 W/m2
19:29 1.8 °C 1.7 °C 1028 hPa NNW 7.1 km/h 14.5 km/h 99% 0 mm 0 W/m2
19:34 1.8 °C 1.7 °C 1028 hPa NNW 9.8 km/h 8 km/h 99% 0 mm 0 W/m2
19:39 1.8 °C 1.7 °C 1028 hPa North 10.3 km/h 11.3 km/h 99% 0 mm 0 W/m2
19:44 1.8 °C 1.7 °C 1028 hPa North 7.7 km/h 12.9 km/h 99% 0 mm 0 W/m2
19:49 1.8 °C 1.7 °C 1028 hPa NNW 7.4 km/h 9.7 km/h 99% 0 mm 0 W/m2
19:54 1.8 °C 1.7 °C 1028 hPa NNW 3.2 km/h 9.7 km/h 99% 0 mm 0 W/m2
19:59 1.8 °C 1.7 °C 1028 hPa NNW 6.6 km/h 8 km/h 99% 0 mm 0 W/m2
20:04 1.8 °C 1.7 °C 1028 hPa NNW 7.4 km/h 8 km/h 99% 0 mm 0 W/m2
20:09 1.8 °C 1.7 °C 1028 hPa NNW 7.6 km/h 8 km/h 99% 0 mm 0 W/m2
20:14 1.8 °C 1.7 °C 1028 hPa NW 7.7 km/h 9.7 km/h 99% 0 mm 0 W/m2
20:19 1.8 °C 1.7 °C 1028 hPa NW 5.8 km/h 9.7 km/h 99% 0 mm 0 W/m2
20:24 1.8 °C 1.7 °C 1028 hPa NNW 7.7 km/h 8 km/h 99% 0 mm 0 W/m2
20:29 1.8 °C 1.7 °C 1028 hPa NW 6.1 km/h 9.7 km/h 99% 0 mm 0 W/m2
20:34 1.8 °C 1.7 °C 1028.3 hPa WNW 4.8 km/h 8 km/h 99% 0 mm 0 W/m2
20:39 1.8 °C 1.7 °C 1028.3 hPa WNW 7.1 km/h 6.4 km/h 99% 0 mm 0 W/m2
20:44 1.8 °C 1.7 °C 1028.3 hPa West 5.8 km/h 8 km/h 99% 0 mm 0 W/m2
20:49 1.8 °C 1.7 °C 1028.3 hPa NW 7.2 km/h 8 km/h 99% 0 mm 0 W/m2
20:54 1.8 °C 1.7 °C 1028 hPa NNW 6.1 km/h 9.7 km/h 99% 0 mm 0 W/m2
20:59 1.8 °C 1.7 °C 1028 hPa North 5.1 km/h 8 km/h 99% 0 mm 0 W/m2
21:04 1.8 °C 1.7 °C 1028 hPa North 4.3 km/h 6.4 km/h 99% 0 mm 0 W/m2
21:09 1.8 °C 1.7 °C 1028 hPa North 5.1 km/h 4.8 km/h 99% 0 mm 0 W/m2
21:14 1.8 °C 1.7 °C 1028 hPa North 4.8 km/h 4.8 km/h 99% 0 mm 0 W/m2
21:19 1.9 °C 1.8 °C 1028 hPa North 4.3 km/h 6.4 km/h 99% 0 mm 0 W/m2
21:24 1.9 °C 1.8 °C 1028 hPa NNW 5.6 km/h 4.8 km/h 99% 0 mm 0 W/m2
21:29 1.9 °C 1.8 °C 1028 hPa NW 4.3 km/h 9.7 km/h 99% 0 mm 0 W/m2
21:34 1.9 °C 1.8 °C 1028 hPa NW 5.8 km/h 5 km/h 99% 0 mm 0 W/m2
21:39 1.9 °C 1.8 °C 1028 hPa North 6.8 km/h 8 km/h 99% 0 mm 0 W/m2
21:44 1.9 °C 1.8 °C 1028 hPa North 7.2 km/h 9.7 km/h 99% 0 mm 0 W/m2
21:49 1.9 °C 1.8 °C 1028.3 hPa North 6.6 km/h 9.7 km/h 99% 0 mm 0 W/m2
21:54 1.9 °C 1.8 °C 1028.3 hPa North 7.4 km/h 8 km/h 99% 0 mm 0 W/m2
21:59 1.9 °C 1.8 °C 1028.3 hPa North 6.3 km/h 9.7 km/h 99% 0 mm 0 W/m2
22:04 2 °C 1.8 °C 1028.3 hPa North 10.8 km/h 12.9 km/h 99% 0 mm 0 W/m2
22:09 2 °C 1.8 °C 1028.3 hPa North 9.2 km/h 12.9 km/h 99% 0 mm 0 W/m2
22:14 2 °C 1.8 °C 1028.3 hPa North 8.5 km/h 12.9 km/h 99% 0 mm 0 W/m2
22:19 2 °C 1.8 °C 1028.3 hPa North 12.2 km/h 10.5 km/h 99% 0 mm 0 W/m2
22:24 2 °C 1.8 °C 1028 hPa North 9 km/h 14.5 km/h 99% 0 mm 0 W/m2
22:29 2.1 °C 1.9 °C 1028 hPa NNW 12.1 km/h 11.3 km/h 99% 0 mm 0 W/m2
22:34 2.1 °C 1.9 °C 1028 hPa NNW 8.2 km/h 19.3 km/h 99% 0 mm 0 W/m2
22:39 2.1 °C 1.9 °C 1028.3 hPa NNW 8.7 km/h 9.7 km/h 99% 0 mm 0 W/m2
22:44 2.1 °C 1.9 °C 1028.3 hPa NNW 11.6 km/h 11.3 km/h 99% 0 mm 0 W/m2
22:49 2.1 °C 1.9 °C 1028 hPa NNW 8.4 km/h 12.9 km/h 99% 0 mm 0 W/m2
22:54 2.1 °C 1.9 °C 1028.3 hPa North 5.1 km/h 12.9 km/h 99% 0 mm 0 W/m2
22:59 2.2 °C 2 °C 1028.3 hPa North 6.8 km/h 8 km/h 99% 0 mm 0 W/m2
23:04 2.2 °C 2.1 °C 1028.3 hPa North 5.8 km/h 9.7 km/h 99% 0 mm 0 W/m2
23:09 2.2 °C 2.1 °C 1028.3 hPa North 6.1 km/h 4.8 km/h 99% 0 mm 0 W/m2
23:14 2.2 °C 2.1 °C 1028 hPa North 4.8 km/h 8 km/h 99% 0 mm 0 W/m2
23:19 2.2 °C 2.1 °C 1028 hPa North 8.9 km/h 6.4 km/h 99% 0 mm 0 W/m2
23:24 2.3 °C 2.1 °C 1028 hPa North 9.8 km/h 14.5 km/h 98.8% 0 mm 0 W/m2
23:29 2.3 °C 2 °C 1028 hPa North 12.7 km/h 12.9 km/h 98% 0 mm 0 W/m2
23:34 2.3 °C 2 °C 1028 hPa North 14.2 km/h 16.1 km/h 98% 0 mm 0 W/m2
23:39 2.3 °C 2.1 °C 1028 hPa North 13 km/h 20.9 km/h 98% 0 mm 0 W/m2
23:44 2.4 °C 2.1 °C 1028 hPa North 14.5 km/h 17.7 km/h 98% 0 mm 0 W/m2
23:49 2.4 °C 2.1 °C 1028 hPa NNW 12.6 km/h 16.1 km/h 98% 0 mm 0 W/m2
23:54 2.4 °C 2.1 °C 1028 hPa NNW 12.2 km/h 14.5 km/h 98% 0 mm 0 W/m2
23:59 2.4 °C 2.1 °C 1028 hPa North 11.7 km/h 14.5 km/h 98% 0 mm 0 W/m2
Knjazevac, Serbia
Compliments of Weather Underground - 4 mb